Search for airport 
image banner adimage banner adimage banner ad
image banner ad

0CA6 - Emory Ranch

Located in Ocotillo, United States

ICAO - 0CA6, IATA -

Data provided by Airmate  

General information

Coordinates: N32°44'58" W116°0'58"
Elevation is 480 feet MSL.
Magnetic variation is 13° East
View others Airports in California

Operational data

Special qualification required
Current time UTC:
Current local time:
Weather at : KNJK - El Centro Naf ( 34 km )
METAR: KNJK 212256Z 05005KT 10SM FEW065 40/04 A2998 RMK AO2 SLP168 T04000044 $
TAF: TAF KNJK 2123/2223 VRB06KT 9999 SKC QNH2993INS FM220400 29004KT 9999 SKC QNH2997INS FM221800 02004KT 9999 SKC QNH2983INS AUTOMATED SENSOR METWATCH 2206 TIL 2213 T23/2213Z T40/2222Z FS30130
View NOTAMs / SUP AIP / TFR affecting this airport [VIEW]
Communications frequencies: [VIEW]

Runways:

RWY identifierQFULength (ft)Width (ft)SurfaceLDA (ft)
04240040ASPH
22240040ASPH

Airport contact information

Address: Ocotillo United States

Satellite view of 0CA6